createdAt,value
2018-06-14T00:01:18.921Z,90.80
2018-06-14T00:03:47.089Z,90.80
2018-06-14T00:06:28.286Z,91.00
2018-06-14T00:09:11.552Z,90.70
2018-06-14T00:11:39.824Z,90.80
2018-06-14T00:14:20.857Z,90.70
2018-06-14T00:16:49.269Z,89.60
2018-06-14T00:19:30.310Z,90.50
2018-06-14T00:22:11.491Z,89.70
2018-06-14T00:24:52.330Z,89.30
2018-06-14T00:27:21.047Z,88.90
2018-06-14T00:32:36.557Z,90.00
2018-06-14T00:35:04.987Z,89.50
2018-06-14T00:37:33.605Z,90.10
2018-06-14T00:40:14.653Z,90.00
2018-06-14T00:42:43.513Z,89.40
2018-06-14T00:45:11.953Z,89.50
2018-06-14T00:47:53.251Z,89.40
2018-06-14T00:50:21.589Z,89.50
2018-06-14T00:52:49.780Z,89.10
2018-06-14T00:55:30.596Z,88.70
2018-06-14T00:58:05.909Z,88.40
2018-06-14T01:00:34.186Z,88.00
2018-06-14T01:03:02.799Z,87.70
2018-06-14T01:05:43.722Z,87.70
2018-06-14T01:08:24.615Z,88.00
2018-06-14T01:10:53.145Z,88.40
2018-06-14T01:13:22.032Z,88.30
2018-06-14T01:16:02.325Z,86.70
2018-06-14T01:18:43.105Z,87.90
2018-06-14T01:21:23.928Z,87.00
2018-06-14T01:24:04.692Z,86.60
2018-06-14T01:26:45.632Z,86.50
2018-06-14T01:29:15.271Z,85.60
2018-06-14T01:31:56.161Z,86.00
2018-06-14T01:34:36.672Z,84.80
2018-06-14T01:37:17.409Z,84.90
2018-06-14T01:39:58.067Z,85.00
2018-06-14T01:42:38.733Z,85.10
2018-06-14T01:45:19.693Z,84.70
2018-06-14T01:48:00.410Z,83.60
2018-06-14T01:50:41.044Z,83.70
2018-06-14T01:53:09.604Z,83.60
2018-06-14T01:55:50.906Z,83.40
2018-06-14T01:58:31.658Z,83.40
2018-06-14T02:01:12.225Z,83.70
2018-06-14T02:03:52.990Z,83.90
2018-06-14T02:06:33.716Z,82.80
2018-06-14T02:09:02.114Z,83.00
2018-06-14T02:11:30.683Z,83.70
2018-06-14T02:14:11.160Z,82.80
2018-06-14T02:16:51.990Z,84.00
2018-06-14T02:19:20.310Z,83.30
2018-06-14T02:21:49.316Z,82.90
2018-06-14T02:24:30.199Z,82.40
2018-06-14T02:27:11.082Z,82.80
2018-06-14T02:29:39.511Z,83.00
2018-06-14T02:32:19.828Z,83.40
2018-06-14T02:35:00.471Z,84.20
2018-06-14T02:37:42.148Z,83.90
2018-06-14T02:40:12.387Z,83.00
2018-06-14T02:42:42.181Z,83.70
2018-06-14T02:45:22.606Z,82.70
2018-06-14T02:48:03.415Z,82.70
2018-06-14T02:50:44.197Z,82.50
2018-06-14T02:53:24.865Z,81.90
2018-06-14T02:55:53.675Z,82.20
2018-06-14T02:58:34.435Z,81.90
2018-06-14T03:01:04.044Z,81.80
2018-06-14T03:03:34.228Z,82.60
2018-06-14T03:06:14.755Z,82.10
2018-06-14T03:08:43.192Z,82.70
2018-06-14T03:11:11.405Z,82.70
2018-06-14T03:16:07.760Z,82.80
2018-06-14T03:18:48.355Z,83.10
2018-06-14T03:21:29.389Z,83.00
2018-06-14T03:24:09.765Z,81.60
2018-06-14T03:26:50.925Z,81.90
2018-06-14T03:29:19.376Z,81.90
2018-06-14T03:32:00.211Z,83.10
2018-06-14T03:34:28.552Z,82.80
2018-06-14T03:37:10.121Z,83.00
2018-06-14T03:39:38.449Z,82.40
2018-06-14T03:42:19.329Z,81.70
2018-06-14T03:44:47.732Z,81.60
2018-06-14T03:47:28.928Z,81.90
2018-06-14T03:50:09.537Z,82.00
2018-06-14T03:52:37.773Z,81.80
2018-06-14T03:55:18.149Z,82.10
2018-06-14T03:57:46.476Z,82.50
2018-06-14T04:00:26.935Z,82.00
2018-06-14T04:03:07.799Z,81.90
2018-06-14T04:05:48.602Z,82.40
2018-06-14T04:08:29.546Z,81.80
2018-06-14T04:10:57.729Z,81.50
2018-06-14T04:13:38.104Z,82.60
2018-06-14T04:16:18.954Z,82.90
2018-06-14T04:18:47.357Z,82.70
2018-06-14T04:21:27.749Z,82.30
2018-06-14T04:24:08.531Z,81.60
2018-06-14T04:26:49.233Z,82.50
2018-06-14T04:29:30.102Z,82.10
2018-06-14T04:32:10.896Z,82.20
2018-06-14T04:34:51.791Z,82.50
2018-06-14T04:37:32.332Z,83.10
2018-06-14T04:40:13.186Z,83.90
2018-06-14T04:42:53.940Z,83.20
2018-06-14T04:45:34.477Z,82.60
2018-06-14T04:48:15.277Z,83.20
2018-06-14T04:50:56.055Z,84.00
2018-06-14T04:53:24.479Z,84.60
2018-06-14T04:55:52.991Z,84.80
2018-06-14T04:58:33.534Z,84.40
2018-06-14T05:01:01.997Z,83.70
2018-06-14T05:03:30.315Z,83.30
2018-06-14T05:06:10.878Z,84.20
2018-06-14T05:08:51.536Z,83.60
2018-06-14T05:11:32.313Z,83.10
2018-06-14T05:14:13.312Z,83.10
2018-06-14T05:16:54.025Z,82.30
2018-06-14T05:19:22.244Z,83.60
2018-06-14T05:22:02.619Z,83.00
2018-06-14T05:24:43.507Z,81.50
2018-06-14T05:29:57.885Z,82.50
2018-06-14T05:32:38.541Z,82.70
2018-06-14T05:35:19.163Z,83.40
2018-06-14T05:37:47.558Z,83.30
2018-06-14T05:40:27.741Z,84.80
2018-06-14T05:43:03.945Z,84.10
2018-06-14T05:45:32.206Z,84.00
2018-06-14T05:48:13.904Z,85.10
2018-06-14T05:50:54.790Z,86.40
2018-06-14T05:53:23.033Z,87.00
2018-06-14T05:55:51.856Z,88.00
2018-06-14T05:58:20.126Z,88.10
2018-06-14T06:00:48.336Z,87.30
2018-06-14T06:03:28.588Z,88.00
2018-06-14T06:05:59.912Z,88.00
2018-06-14T06:08:41.023Z,88.80
2018-06-14T06:11:09.314Z,87.60
2018-06-14T06:13:49.576Z,86.80
2018-06-14T06:16:17.785Z,87.70
2018-06-14T06:18:46.080Z,86.90
2018-06-14T06:21:14.680Z,87.30
2018-06-14T06:23:42.990Z,88.30
2018-06-14T06:26:23.803Z,88.20
2018-06-14T06:29:04.510Z,88.50
2018-06-14T06:31:32.738Z,87.80
2018-06-14T06:34:01.729Z,87.60
2018-06-14T06:36:42.833Z,85.90
2018-06-14T06:39:23.494Z,86.10
2018-06-14T06:41:58.237Z,86.00
2018-06-14T06:44:26.423Z,85.10
2018-06-14T06:47:06.707Z,85.20
2018-06-14T06:49:47.398Z,83.80
2018-06-14T06:52:17.241Z,83.80
2018-06-14T06:54:47.145Z,83.10
2018-06-14T06:57:16.654Z,80.60
2018-06-14T06:59:44.974Z,81.20
2018-06-14T07:02:13.244Z,81.50
2018-06-14T07:04:41.504Z,82.40
2018-06-14T07:07:22.410Z,82.00
2018-06-14T07:10:03.054Z,80.80
2018-06-14T07:12:43.776Z,81.20
2018-06-14T07:15:12.037Z,83.20
2018-06-14T07:17:52.257Z,80.10
2018-06-14T07:20:20.595Z,77.80
2018-06-14T07:23:00.930Z,76.80
2018-06-14T07:25:41.681Z,78.30
2018-06-14T07:28:22.461Z,76.90
2018-06-14T07:30:50.669Z,75.70
2018-06-14T07:33:18.896Z,76.50
2018-06-14T07:35:47.231Z,77.20
2018-06-14T07:38:15.684Z,76.10
2018-06-14T07:40:43.949Z,75.90
2018-06-14T07:43:24.935Z,75.40
2018-06-14T07:45:53.260Z,74.10
2018-06-14T07:48:21.546Z,72.50
2018-06-14T07:51:02.366Z,72.10
2018-06-14T07:53:43.127Z,72.20
2018-06-14T07:56:11.360Z,71.80
2018-06-14T07:58:51.644Z,71.50
2018-06-14T08:01:32.285Z,72.30
2018-06-14T08:04:12.864Z,72.90
2018-06-14T08:06:41.038Z,72.20
2018-06-14T08:09:10.369Z,70.90
2018-06-14T08:11:44.668Z,70.30
2018-06-14T08:14:13.034Z,71.50
2018-06-14T08:16:41.453Z,70.60
2018-06-14T08:19:09.655Z,70.10
2018-06-14T08:21:38.000Z,70.00
2018-06-14T08:24:06.246Z,70.80
2018-06-14T08:26:38.443Z,69.50
2018-06-14T08:29:06.706Z,69.60
2018-06-14T08:31:34.953Z,70.50
2018-06-14T08:34:09.125Z,71.40
2018-06-14T08:36:43.869Z,71.80
2018-06-14T08:39:12.290Z,71.50
2018-06-14T08:41:40.516Z,72.00
2018-06-14T08:44:20.805Z,73.30
2018-06-14T08:47:01.434Z,73.20
2018-06-14T08:49:42.104Z,73.10
2018-06-14T08:52:23.004Z,71.30
2018-06-14T08:54:52.603Z,71.00
2018-06-14T08:57:27.987Z,71.00
2018-06-14T08:59:57.243Z,69.40
2018-06-14T09:02:31.193Z,68.60
2018-06-14T09:05:01.328Z,68.00
2018-06-14T09:07:29.664Z,68.00
2018-06-14T09:10:10.593Z,67.80
2018-06-14T09:12:46.774Z,68.00
2018-06-14T09:15:15.075Z,68.00
2018-06-14T09:17:55.669Z,67.20
2018-06-14T09:20:25.261Z,67.90
2018-06-14T09:23:05.404Z,69.30
2018-06-14T09:25:46.117Z,68.60
2018-06-14T09:28:26.914Z,67.70
2018-06-14T09:30:59.314Z,67.40
